CheckWX is a tool to help pilots better visualize weather data.  It is not intended as a substitute for an official pre-flight weather briefing.

19:38:21 UTC

KLLQ TAF
Monticello Municipal / Ellis Field Airport
Monticello, Arkansas, USA
KLLQ 302321Z 3100/3124 00000KT P6SM SCT250 FM311500 05008KT P6SM SKC

May-31@
00:00 UTC

May-31 @ 00:00 UTC

May-31@
15:00 UTC

May-31 @ 15:00 UTC

TAF KLLQ 302321Z 3100/3124 00000KT P6SM SCT250

Expired

Cloud Levels
  • Scattered at 25,000' AGL

May-31@
15:00 UTC

May-31 @ 15:00 UTC

Jun-1@
00:00 UTC

Jun-1 @ 00:00 UTC

FM311500 05008KT P6SM SKC

From

From Standard forecast or significant change

Wind
  • 050° at 8 KTS
Cloud Levels
  • Clear skies